createdAt,value
2023-05-22T00:01:22.689Z,14.85
2023-05-22T00:08:06.402Z,16.25
2023-05-22T00:14:48.776Z,17.13
2023-05-22T00:21:34.891Z,15.48
2023-05-22T00:28:17.692Z,15.95
2023-05-22T00:35:01.292Z,16.17
2023-05-22T00:41:43.651Z,15.45
2023-05-22T00:48:26.265Z,16.75
2023-05-22T00:55:12.423Z,14.82
2023-05-22T01:01:55.814Z,16.65
2023-05-22T01:08:38.264Z,17.65
2023-05-22T01:15:39.521Z,16.83
2023-05-22T01:22:50.045Z,16.35
2023-05-22T01:30:11.452Z,17.13
2023-05-22T01:36:55.523Z,17.42
2023-05-22T01:43:38.357Z,16.05
2023-05-22T01:50:22.108Z,17.67
2023-05-22T01:57:22.097Z,16.45
2023-05-22T02:04:05.775Z,18.45
2023-05-22T02:10:50.299Z,16.35
2023-05-22T02:17:40.203Z,17.02
2023-05-22T02:24:24.042Z,16.92
2023-05-22T02:31:07.454Z,17.33
2023-05-22T02:37:49.828Z,17.77
2023-05-22T02:44:32.165Z,17.25
2023-05-22T02:51:14.821Z,18.42
2023-05-22T02:57:57.226Z,16.73
2023-05-22T03:04:41.954Z,16.55
2023-05-22T03:11:24.723Z,15.85
2023-05-22T03:18:07.288Z,18.10
2023-05-22T03:24:49.751Z,15.75
2023-05-22T03:31:33.669Z,17.38
2023-05-22T03:38:22.384Z,16.25
2023-05-22T03:45:05.649Z,15.30
2023-05-22T03:51:48.254Z,16.40
2023-05-22T03:58:31.678Z,15.82
2023-05-22T04:05:15.099Z,16.98
2023-05-22T04:11:57.477Z,15.38
2023-05-22T04:18:39.803Z,15.48
2023-05-22T04:25:22.181Z,16.27
2023-05-22T04:32:06.239Z,14.75
2023-05-22T04:38:50.225Z,14.95
2023-05-22T04:45:32.889Z,14.75
2023-05-22T04:52:15.791Z,14.63
2023-05-22T04:58:58.639Z,14.07
2023-05-22T05:05:41.164Z,12.38
2023-05-22T05:12:23.892Z,12.68
2023-05-22T05:19:06.909Z,12.52
2023-05-22T05:25:49.574Z,12.98
2023-05-22T05:32:32.047Z,12.15
2023-05-22T05:39:37.401Z,13.27
2023-05-22T05:46:22.384Z,13.68
2023-05-22T05:53:06.130Z,14.00
2023-05-22T05:59:49.801Z,13.80
2023-05-22T06:06:51.751Z,14.73
2023-05-22T06:13:34.123Z,14.68
2023-05-22T06:20:16.848Z,14.32
2023-05-22T06:26:59.792Z,13.80
2023-05-22T06:33:43.294Z,14.38
2023-05-22T06:40:26.281Z,14.32
2023-05-22T06:47:12.966Z,14.18
2023-05-22T06:53:57.104Z,13.50
2023-05-22T07:00:44.273Z,14.23
2023-05-22T07:07:34.106Z,13.57
2023-05-22T07:14:18.146Z,13.32
2023-05-22T07:21:01.582Z,13.75
2023-05-22T07:27:44.890Z,12.40
2023-05-22T07:34:33.075Z,11.88
2023-05-22T07:41:17.014Z,11.57
2023-05-22T07:48:01.893Z,11.25
2023-05-22T07:54:46.370Z,11.57
2023-05-22T08:01:29.895Z,11.20
2023-05-22T08:08:12.388Z,11.75
2023-05-22T08:14:54.700Z,11.82
2023-05-22T08:21:37.445Z,12.57
2023-05-22T08:28:20.006Z,11.15
2023-05-22T08:35:02.874Z,12.57
2023-05-22T08:41:45.481Z,12.38
2023-05-22T08:48:31.808Z,11.20
2023-05-22T08:55:14.353Z,11.85
2023-05-22T09:01:58.019Z,11.60
2023-05-22T09:08:42.702Z,11.27
2023-05-22T09:15:29.889Z,12.75
2023-05-22T09:22:12.649Z,10.57
2023-05-22T09:28:55.108Z,10.25
2023-05-22T09:35:39.499Z,9.80
2023-05-22T09:42:24.851Z,11.02
2023-05-22T09:49:07.225Z,10.85
2023-05-22T09:55:51.144Z,10.15
2023-05-22T10:02:34.038Z,9.52
2023-05-22T10:09:19.672Z,10.30
2023-05-22T10:16:04.544Z,10.60
2023-05-22T10:22:49.005Z,11.38
2023-05-22T10:29:40.479Z,10.23
2023-05-22T10:36:50.147Z,10.43
2023-05-22T10:43:32.954Z,9.82
2023-05-22T10:50:17.947Z,10.57
2023-05-22T10:57:11.810Z,10.23
2023-05-22T11:03:56.426Z,9.95
2023-05-22T11:10:59.147Z,9.98
2023-05-22T11:17:51.284Z,9.25
2023-05-22T11:24:34.382Z,10.65
2023-05-22T11:31:17.686Z,9.68
2023-05-22T11:38:04.808Z,9.43
2023-05-22T11:44:47.341Z,9.52
2023-05-22T11:51:29.913Z,9.85
2023-05-22T11:58:12.333Z,9.38
2023-05-22T12:04:56.067Z,8.82
2023-05-22T12:11:38.476Z,9.07
2023-05-22T12:18:21.293Z,10.30
2023-05-22T12:25:14.209Z,9.48
2023-05-22T12:32:05.870Z,11.30
2023-05-22T12:38:48.252Z,10.02
2023-05-22T12:45:30.889Z,9.52
2023-05-22T12:52:13.366Z,10.13
2023-05-22T12:58:59.655Z,9.77
2023-05-22T13:05:42.301Z,10.95
2023-05-22T13:12:27.140Z,9.98
2023-05-22T13:19:09.871Z,9.55
2023-05-22T13:25:52.294Z,9.30
2023-05-22T13:32:35.219Z,10.07
2023-05-22T13:39:17.880Z,9.25
2023-05-22T13:46:00.396Z,8.13
2023-05-22T13:52:42.782Z,8.32
2023-05-22T13:59:25.321Z,7.75
2023-05-22T14:06:10.076Z,7.75
2023-05-22T14:12:52.539Z,7.90
2023-05-22T14:19:35.736Z,6.45
2023-05-22T14:26:18.218Z,7.88
2023-05-22T14:33:00.949Z,7.90
2023-05-22T14:39:43.315Z,8.77
2023-05-22T14:46:26.951Z,7.88
2023-05-22T14:53:09.574Z,7.93
2023-05-22T14:59:51.957Z,8.48
2023-05-22T15:06:35.027Z,8.13
2023-05-22T15:13:17.493Z,8.63
2023-05-22T15:19:59.966Z,8.68
2023-05-22T15:26:42.320Z,8.77
2023-05-22T15:33:24.734Z,8.25
2023-05-22T15:40:09.635Z,7.90
2023-05-22T15:46:52.042Z,5.85
2023-05-22T15:53:34.431Z,6.75
2023-05-22T16:00:18.505Z,6.00
2023-05-22T16:07:01.046Z,6.40
2023-05-22T16:13:43.525Z,6.45
2023-05-22T16:20:25.972Z,7.03
2023-05-22T16:27:08.437Z,6.10
2023-05-22T16:33:50.888Z,6.60
2023-05-22T16:40:34.251Z,6.13
2023-05-22T16:47:16.632Z,6.28
2023-05-22T16:54:01.722Z,6.55
2023-05-22T17:00:44.132Z,6.00
2023-05-22T17:07:26.696Z,6.45
2023-05-22T17:14:09.385Z,5.97
2023-05-22T17:20:56.061Z,5.95
2023-05-22T17:27:38.767Z,5.47
2023-05-22T17:34:21.198Z,6.10
2023-05-22T17:41:03.666Z,6.30
2023-05-22T17:47:46.678Z,6.20
2023-05-22T17:54:35.759Z,6.95
2023-05-22T18:01:18.899Z,8.10
2023-05-22T18:08:01.384Z,8.23
2023-05-22T18:14:43.728Z,8.35
2023-05-22T18:21:26.140Z,8.27
2023-05-22T18:28:08.538Z,8.50
2023-05-22T18:34:51.992Z,7.88
2023-05-22T18:41:35.813Z,8.38
2023-05-22T18:48:18.144Z,7.70
2023-05-22T18:55:00.833Z,8.43
2023-05-22T19:01:44.513Z,9.25
2023-05-22T19:08:27.305Z,9.23
2023-05-22T19:15:10.419Z,9.45
2023-05-22T19:21:53.793Z,9.63
2023-05-22T19:28:36.217Z,9.38
2023-05-22T19:35:18.736Z,9.60
2023-05-22T19:42:01.108Z,8.65
2023-05-22T19:48:43.466Z,9.45
2023-05-22T19:55:25.835Z,9.98
2023-05-22T20:02:08.359Z,9.38
2023-05-22T20:08:50.939Z,9.63
2023-05-22T20:15:35.550Z,10.38
2023-05-22T20:22:17.948Z,10.65
2023-05-22T20:29:02.533Z,10.60
2023-05-22T20:35:45.041Z,10.57
2023-05-22T20:42:28.571Z,11.00
2023-05-22T20:49:12.241Z,10.27
2023-05-22T20:55:54.622Z,10.38
2023-05-22T21:02:38.882Z,9.68
2023-05-22T21:09:21.378Z,10.40
2023-05-22T21:16:03.829Z,9.60
2023-05-22T21:22:48.060Z,10.23
2023-05-22T21:29:30.485Z,8.90
2023-05-22T21:36:12.858Z,9.38
2023-05-22T21:42:55.306Z,9.70
2023-05-22T21:49:39.544Z,9.25
2023-05-22T21:56:22.234Z,8.98
2023-05-22T22:03:04.848Z,8.80
2023-05-22T22:09:47.232Z,8.55
2023-05-22T22:16:29.603Z,9.57
2023-05-22T22:23:12.158Z,9.38
2023-05-22T22:29:54.482Z,8.30
2023-05-22T22:36:36.992Z,8.30
2023-05-22T22:43:19.358Z,8.13
2023-05-22T22:50:02.200Z,9.10
2023-05-22T22:56:46.684Z,8.27
2023-05-22T23:03:29.017Z,8.38
2023-05-22T23:10:11.430Z,10.32
2023-05-22T23:16:54.112Z,9.98
2023-05-22T23:23:36.470Z,11.07
2023-05-22T23:30:18.889Z,12.98
2023-05-22T23:37:01.320Z,14.00
2023-05-22T23:43:44.198Z,17.30
2023-05-22T23:50:26.582Z,20.33
2023-05-22T23:57:08.985Z,21.85
